Thunder radar more information blitzortung!


Radar de pluja more information rain snow radar


Visita la nostra xarxa de llocs de meteo:

Template documentation
and downloads

And another site



No particular awareness of the weather is required.    There are no Weather-warnings

Pagina Historial Weather Underground text

Diari Resum February 9, 2016 Unitats:  Mètric    Imperial   Tant
« Previous Dia
SegĂźent Dia »
Diari Setmana Mensual Anual Personalitzada
  Maxima: Minima: Media:
Temperatura: -17.8 °C -9.5 °C -8.5 °C
Punt de rosada: -17.8 °C -15.9 °C -14.8 °C
Humitat: Humidity % 43 % 47 %
Wind Speed: 0 km/h 6 km/h 22.9 km/h
RĂ fegues de vent: 0 km/h - -
Vent:- - WSW
Pression baro: 0 hPa 33616.2 hPa -
Precipitacions: 0 mm    
Historical Graphs
 
 
Dades de taula per February 9, 2016
Temps Temperatura Punt de rosada Pression baro Vent Wind Speed RĂ fegues de vent Humitat Rainfall Rate (Hourly)
-17.8 °C -17.8 °C 0 hPa Calm     Humidity % 0 mm
11:45 -8.7 °C -14.1 °C 33650.1 hPa West 26.9 km/h 26.9 km/h 53 % 0 mm
11:50 -8.7 °C -14 °C 33616.2 hPa WSW 26.9 km/h 26.9 km/h 53 % 0 mm
11:55 -8.6 °C -13.9 °C 33616.2 hPa WNW 29.8 km/h 29.8 km/h 53 % 0 mm
12:00 -8.6 °C -14.1 °C 34327.3 hPa NNW 26.9 km/h 26.9 km/h 52 % 0 mm
12:05 -8.6 °C -14.1 °C 34327.3 hPa WSW 20.9 km/h 20.9 km/h 52 % 0 mm
12:10 -8.6 °C -14.1 °C 34327.3 hPa WSW 23.8 km/h 23.8 km/h 52 % 0 mm
12:15 -8.6 °C -14.1 °C 34327.3 hPa West 35.7 km/h 35.7 km/h 52 % 0 mm
12:20 -8.5 °C -14 °C 34293.4 hPa West 26.4 km/h 26.4 km/h 52 % 0 mm
12:25 -8.5 °C -14 °C 34293.4 hPa West 29.8 km/h 29.8 km/h 52 % 0 mm
12:30 -8.4 °C -13.9 °C 34293.4 hPa SW 26.9 km/h 26.9 km/h 52 % 0 mm
12:35 -8.3 °C -14 °C 34327.3 hPa WSW 26.9 km/h 26.9 km/h 51 % 0 mm
12:40 -8.3 °C -14.1 °C 34327.3 hPa West 26.9 km/h 26.9 km/h 50 % 0 mm
12:45 -8.2 °C -14.1 °C 34327.3 hPa WNW 15 km/h 15 km/h 50 % 0 mm
12:50 -8.1 °C -13.8 °C 34327.3 hPa WSW 15 km/h 15 km/h 51 % 0 mm
12:55 -8.1 °C -13.9 °C 34327.3 hPa WNW 23.8 km/h 23.8 km/h 50 % 0 mm
13:00 -8 °C -13.8 °C 34327.3 hPa East 15 km/h 15 km/h 50 % 0 mm
13:05 -8.1 °C -13.9 °C 34327.3 hPa NE 23.8 km/h 23.8 km/h 50 % 0 mm
13:10 -8.2 °C -14.2 °C 34327.3 hPa West 26.9 km/h 26.9 km/h 49 % 0 mm
13:15 -8.3 °C -14.3 °C 34327.3 hPa SW 29.8 km/h 29.8 km/h 49 % 0 mm
13:20 -8.3 °C -14.3 °C 34293.4 hPa WSW 35.7 km/h 35.7 km/h 49 % 0 mm
13:25 -8.3 °C -14.3 °C 34293.4 hPa WSW 23.8 km/h 23.8 km/h 49 % 0 mm
13:30 -8.3 °C -14.3 °C 34293.4 hPa West 23.8 km/h 23.8 km/h 49 % 0 mm
13:35 -8.3 °C -14.3 °C 34256.2 hPa West 20.9 km/h 20.9 km/h 49 % 0 mm
13:40 -8.3 °C -14.3 °C 34256.2 hPa SW 23.8 km/h 23.8 km/h 49 % 0 mm
13:45 -8.3 °C -14.3 °C 34256.2 hPa SW 38.8 km/h 38.8 km/h 49 % 0 mm
13:50 -8.3 °C -14.3 °C 34222.3 hPa West 29.8 km/h 29.8 km/h 49 % 0 mm
13:55 -8.4 °C -14.2 °C 34222.3 hPa West 32.3 km/h 32.3 km/h 50 % 0 mm
14:00 -8.4 °C -14.2 °C 34222.3 hPa East 35.7 km/h 35.7 km/h 50 % 0 mm
14:05 -8.3 °C -14.3 °C 34256.2 hPa WSW 17.9 km/h 17.9 km/h 49 % 0 mm
14:10 -8.3 °C -14.3 °C 34256.2 hPa SSW 23.8 km/h 23.8 km/h 49 % 0 mm
14:15 -8.3 °C -14.3 °C 34256.2 hPa WSW 38.8 km/h 38.8 km/h 49 % 0 mm
14:25 -8.2 °C -14.2 °C 34198.6 hPa WSW 20.9 km/h 20.9 km/h 49 % 0 mm
14:30 -8.1 °C -14.3 °C 34198.6 hPa SSW 39.9 km/h 39.9 km/h 48 % 0 mm
14:35 -8.1 °C -14.4 °C 34198.6 hPa WSW 30.6 km/h 30.6 km/h 47 % 0 mm
14:40 -8.1 °C -14.5 °C 34198.6 hPa WSW 20.9 km/h 20.9 km/h 47 % 0 mm
14:45 -8.1 °C -14.5 °C 34198.6 hPa WNW 38.8 km/h 38.8 km/h 47 % 0 mm
14:50 -8.1 °C -14.6 °C 34198.6 hPa SSE 23.8 km/h 23.8 km/h 46 % 0 mm
14:55 -8.1 °C -14.6 °C 34198.6 hPa West 26.9 km/h 26.9 km/h 46 % 0 mm
15:00 -8.1 °C -14.6 °C 34198.6 hPa WSW 29.8 km/h 29.8 km/h 46 % 0 mm
15:05 -8.1 °C -14.6 °C 34164.7 hPa West 20.9 km/h 20.9 km/h 46 % 0 mm
15:10 -8.1 °C -14.8 °C 34164.7 hPa NW 23.8 km/h 23.8 km/h 45 % 0 mm
15:15 -8.1 °C -15 °C 34164.7 hPa West 26.9 km/h 26.9 km/h 44 % 0 mm
15:20 -8.2 °C -15.1 °C 34130.9 hPa WSW 38.8 km/h 38.8 km/h 44 % 0 mm
15:25 -8.2 °C -15.1 °C 34130.9 hPa WSW 23.8 km/h 23.8 km/h 44 % 0 mm
15:30 -8.3 °C -15.2 °C 34130.9 hPa WSW 15 km/h 15 km/h 44 % 0 mm
15:35 -8.2 °C -15.1 °C 34130.9 hPa WSW 17.9 km/h 17.9 km/h 44 % 0 mm
15:40 -8.2 °C -15.1 °C 34130.9 hPa West 26.9 km/h 26.9 km/h 44 % 0 mm
15:45 -8.2 °C -15.1 °C 34130.9 hPa WSW 38.8 km/h 38.8 km/h 44 % 0 mm
15:50 -8.2 °C -15.1 °C 34130.9 hPa WSW 26.9 km/h 26.9 km/h 44 % 0 mm
15:55 -8.2 °C -15.1 °C 34130.9 hPa West 38.8 km/h 38.8 km/h 44 % 0 mm
16:00 -8.2 °C -15.1 °C 34130.9 hPa SW 23.8 km/h 23.8 km/h 44 % 0 mm
16:05 -8.2 °C -15.1 °C 34130.9 hPa WSW 15 km/h 15 km/h 44 % 0 mm
16:10 -8.2 °C -15.1 °C 34130.9 hPa WSW 23.8 km/h 23.8 km/h 44 % 0 mm
16:15 -8.2 °C -15.1 °C 34130.9 hPa WSW 26.9 km/h 26.9 km/h 44 % 0 mm
16:20 -8.1 °C -15 °C 34130.9 hPa West 15.6 km/h 15.6 km/h 44 % 0 mm
16:25 -8.1 °C -15.2 °C 34130.9 hPa West 20.9 km/h 20.9 km/h 43 % 0 mm
16:30 -8.2 °C -15.2 °C 34130.9 hPa WSW 35.7 km/h 35.7 km/h 43 % 0 mm
16:35 -8.2 °C -15.2 °C 34130.9 hPa South 26.9 km/h 26.9 km/h 43 % 0 mm
16:40 -8.2 °C -15.2 °C 34130.9 hPa WSW 15 km/h 15 km/h 43 % 0 mm
16:45 -8.2 °C -15.2 °C 34130.9 hPa SSW 32.8 km/h 32.8 km/h 43 % 0 mm
16:50 -8.2 °C -15.2 °C 34097 hPa SW 29.8 km/h 29.8 km/h 43 % 0 mm
16:55 -8.2 °C -15.2 °C 34097 hPa WSW 32.8 km/h 32.8 km/h 43 % 0 mm
17:00 -8.1 °C -15.2 °C 34097 hPa West 20.9 km/h 20.9 km/h 43 % 0 mm
17:05 -8.2 °C -15.2 °C 34097 hPa West 19.6 km/h 19.6 km/h 43 % 0 mm
17:10 -8.2 °C -15.2 °C 34097 hPa WSW 17.9 km/h 17.9 km/h 43 % 0 mm
17:20 -8.2 °C -15.2 °C 34097 hPa WSW 11.9 km/h 11.9 km/h 43 % 0 mm
17:25 -8.2 °C -15.2 °C 34097 hPa SW 15 km/h 15 km/h 43 % 0 mm
17:30 -8.2 °C -15.2 °C 34097 hPa WSW 7.6 km/h 10.3 km/h 43 % 0 mm
17:35 -8.2 °C -15.3 °C 34063.2 hPa WSW 26.9 km/h 26.9 km/h 43 % 0 mm
17:40 -8.2 °C -15.2 °C 34063.2 hPa WSW 32.8 km/h 32.8 km/h 43 % 0 mm
17:45 -8.2 °C -15.3 °C 34063.2 hPa WSW 15.6 km/h 17.4 km/h 43 % 0 mm
17:50 -8.2 °C -15.3 °C 34063.2 hPa SSW 28.2 km/h 28.2 km/h 43 % 0 mm
17:55 -8.3 °C -15.2 °C 34063.2 hPa SSW 19.2 km/h 19.2 km/h 44 % 0 mm
18:00 -8.3 °C -15.2 °C 34063.2 hPa WSW 20.9 km/h 20.9 km/h 44 % 0 mm
18:05 -8.3 °C -15.2 °C 34063.2 hPa WNW 20.9 km/h 20.9 km/h 44 % 0 mm
18:10 -8.3 °C -15.2 °C 34063.2 hPa SW 17.9 km/h 17.9 km/h 44 % 0 mm
18:15 -8.4 °C -15.1 °C 34063.2 hPa South 17.9 km/h 17.9 km/h 45 % 0 mm
18:25 -8.4 °C -15.1 °C 34063.2 hPa WSW 17.9 km/h 17.9 km/h 45 % 0 mm
18:30 -8.6 °C -15.1 °C 34063.2 hPa SW 20.9 km/h 20.9 km/h 46 % 0 mm
18:35 -8.8 °C -15.1 °C 34063.2 hPa SW 15 km/h 15 km/h 47 % 0 mm
18:40 -8.9 °C -15.2 °C 34063.2 hPa WSW 9 km/h 9 km/h 47 % 0 mm
18:45 -8.8 °C -15.1 °C 34063.2 hPa WSW 15 km/h 15 km/h 47 % 0 mm
18:50 -8.6 °C -14.9 °C 34063.2 hPa WSW 27.7 km/h 27.7 km/h 47 % 0 mm
18:55 -8.4 °C -14.7 °C 34063.2 hPa SW 15 km/h 15 km/h 47 % 0 mm
19:00 -8.3 °C -15.1 °C 34063.2 hPa WSW 20.9 km/h 20.9 km/h 45 % 0 mm
19:05 -8.2 °C -14.9 °C 34063.2 hPa WSW 38.8 km/h 38.8 km/h 45 % 0 mm
19:10 -8.2 °C -14.9 °C 34063.2 hPa WSW 26.9 km/h 26.9 km/h 45 % 0 mm
19:15 -8.2 °C -14.9 °C 34063.2 hPa WSW 17.9 km/h 17.9 km/h 45 % 0 mm
19:20 -8.2 °C -14.9 °C 34063.2 hPa West 29.5 km/h 29.5 km/h 45 % 0 mm
19:30 -8.1 °C -14.8 °C 34063.2 hPa WSW 20.9 km/h 20.9 km/h 45 % 0 mm
19:35 -8.1 °C -14.8 °C 34063.2 hPa West 20.9 km/h 20.9 km/h 45 % 0 mm
19:40 -8.2 °C -14.9 °C 34063.2 hPa West 41.7 km/h 41.7 km/h 45 % 0 mm
19:45 -8.2 °C -14.9 °C 34063.2 hPa WSW 20.9 km/h 20.9 km/h 45 % 0 mm
19:50 -8.2 °C -14.7 °C 34063.2 hPa SW 32.8 km/h 32.8 km/h 46 % 0 mm
19:55 -8.3 °C -14.8 °C 34063.2 hPa WSW 25.4 km/h 25.4 km/h 46 % 0 mm
20:00 -8.3 °C -14.6 °C 34063.2 hPa WSW 11.9 km/h 11.9 km/h 47 % 0 mm
20:05 -8.3 °C -14.6 °C 34063.2 hPa WSW 26.9 km/h 26.9 km/h 47 % 0 mm
20:10 -8.3 °C -14.7 °C 34063.2 hPa WSW 6 km/h 6.3 km/h 47 % 0 mm
20:15 -8.4 °C -14.6 °C 34063.2 hPa WSW 15 km/h 15 km/h 48 % 0 mm
20:20 -8.4 °C -14.6 °C 34063.2 hPa WSW 9 km/h 9 km/h 48 % 0 mm
20:25 -8.4 °C -14.6 °C 34063.2 hPa West 20.9 km/h 20.9 km/h 48 % 0 mm
20:30 -8.4 °C -14.6 °C 34063.2 hPa WNW 20.3 km/h 20.3 km/h 48 % 0 mm
20:35 -8.4 °C -14.6 °C 34063.2 hPa SW 23.8 km/h 23.8 km/h 48 % 0 mm
20:40 -8.3 °C -14.8 °C 34063.2 hPa WSW 32.8 km/h 32.8 km/h 46 % 0 mm
20:45 -8.2 °C -14.8 °C 34063.2 hPa WSW 20.9 km/h 20.9 km/h 46 % 0 mm
20:50 -8.3 °C -14.8 °C 34097 hPa SW 17.4 km/h 17.4 km/h 46 % 0 mm
20:55 -8.2 °C -14.8 °C 34097 hPa West 11.9 km/h 11.9 km/h 46 % 0 mm
21:05 -8.3 °C -14.8 °C 34063.2 hPa NNW 9 km/h 18.3 km/h 46 % 0 mm
21:10 -8.3 °C -14.8 °C 34063.2 hPa SW 17.9 km/h 17.9 km/h 46 % 0 mm
21:15 -8.3 °C -14.8 °C 34063.2 hPa SSW 11.9 km/h 11.9 km/h 46 % 0 mm
21:20 -8.3 °C -14.8 °C 34063.2 hPa South 11.9 km/h 11.9 km/h 46 % 0 mm
21:25 -8.3 °C -14.8 °C 34063.2 hPa WNW 15 km/h 15 km/h 46 % 0 mm
21:30 -8.3 °C -14.8 °C 34063.2 hPa WNW 17.9 km/h 17.9 km/h 46 % 0 mm
21:35 -8.4 °C -14.6 °C 34097 hPa WSW 14.5 km/h 14.5 km/h 48 % 0 mm
21:40 -8.7 °C -14.6 °C 34097 hPa SW 11.9 km/h 11.9 km/h 49 % 0 mm
21:45 -8.8 °C -14.6 °C 34097 hPa WSW 20.9 km/h 22 km/h 50 % 0 mm
21:55 -9.1 °C -14.7 °C 34097 hPa WSW 11.9 km/h 16.6 km/h 51 % 0 mm
22:00 -9.2 °C -14.8 °C 34097 hPa WSW 38.8 km/h 38.8 km/h 51 % 0 mm
22:05 -9.2 °C -14.8 °C 34097 hPa SW 29.8 km/h 29.8 km/h 51 % 0 mm
22:10 -9.3 °C -15.1 °C 34097 hPa WSW 25.4 km/h 25.4 km/h 50 % 0 mm
22:15 -9.3 °C -15.1 °C 34097 hPa West 15 km/h 16.1 km/h 50 % 0 mm
22:20 -9.3 °C -15.2 °C 34097 hPa WSW 20.9 km/h 20.9 km/h 49 % 0 mm
22:25 -9.3 °C -15.4 °C 34097 hPa West 20.9 km/h 20.9 km/h 48 % 0 mm
22:30 -9.3 °C -15.4 °C 34097 hPa West 15 km/h 15 km/h 48 % 0 mm
22:35 -9.3 °C -15.6 °C 34097 hPa WSW 20.9 km/h 20.9 km/h 47 % 0 mm
22:40 -9.3 °C -15.6 °C 34097 hPa West 23.8 km/h 23.8 km/h 47 % 0 mm
22:45 -9.4 °C -15.7 °C 34097 hPa WSW 9 km/h 12.2 km/h 47 % 0 mm
22:50 -9.4 °C -15.7 °C 34097 hPa WSW 20.9 km/h 20.9 km/h 47 % 0 mm
22:55 -9.4 °C -15.7 °C 34097 hPa SW 20.3 km/h 20.3 km/h 47 % 0 mm
23:00 -9.4 °C -15.9 °C 34097 hPa WSW 22.5 km/h 22.5 km/h 46 % 0 mm
23:05 -9.4 °C -15.9 °C 34130.9 hPa West 25.4 km/h 25.4 km/h 46 % 0 mm
23:10 -9.4 °C -15.9 °C 34130.9 hPa SW 16.1 km/h 16.1 km/h 46 % 0 mm
23:15 -9.5 °C -15.9 °C 34130.9 hPa WSW 15.3 km/h 15.3 km/h 46 % 0 mm
23:20 -9.5 °C -15.9 °C 34063.2 hPa SSE 23.8 km/h 23.8 km/h 46 % 0 mm
Meteo Sesrovires
Elogis d' Weather Underground - 4 mb

Guio original per  Jim McMurry - jmcmurry@mwt.net Adaptat per a la plantilla per  Wim van der Kuil - Leuven-Template.eu

Trobareu la nostra informacio del temps tambe a:

Weather Underground

AWEKAS